Ana Sayfa
METAR-TAF:

METAR-TAF

Havaalanları :

Houma-Terrebonne Airport

Houma, Louisiana, Amerika Birleşik Devletleri

Enlem: 29-34N, Boylam: 090-40W, yükseklik: 3 m

Güncel hava durumu gözlemi

Rapor saat 08:55 UTC de 45 dakika önce yapıldı.
Sakin rüzgar
Sıcaklık 25°C
Nem 94%
Basınç 1014 hPa
Görüş mesafesi: 11.3 km
Açık gökyüzü

METAR: KHUM 250855Z AUTO 00000KT 7SM CLR 25/24 A2995 RMK AO2 T02540242

Saat: 04:40 (09:40 UTC)

Tahmin

Rapor saat 05:20 UTC de 4 saat ve 20 dakika önce yapıldı.
Ayın 25'si saat 06 UTC'den ayın 26'si saat 06 UTC'ye kadar geçerli Tahmin
Rüzgar değişken yönden 3 kt
Görüş mesafesi: 10 km
3000 ft yükseklikte az bulutlu
11000 ft yükseklikte parçalı bulutlu
Ayın 25'si saat 1900 UTC'den
Rüzgar güneydan 6 kt
Görüş mesafesi: 10 km
4500 ft yükseklikte parçalı bulutlu, Kümülonimbus.
10000 ft yükseklikte parçalı çok bulutlu
civarda gök gürültülü fırtına,

TAF: KHUM 250520Z 2506/2606 VRB03KT P6SM FEW030 SCT110 FM251900 19006KT P6SM VCTS SCT045CB BKN100

4.000'den fazla havaalanı için hava durumu gözlemleri ve tahminleri (METAR ve TAF raporları).

Kullanılabilir istasyonlar harita üzerinde sarı ve kırmızı noktalarla gösterilir.

İstasyonun adını görmek için fareyi noktanın üzerinde gezdirin.

Sonrasında hava gözlem ve tahminlerini görmek için tıklayın.

Haritayı değiştirmek için: yaklaştırmak için siyah artı işaretli yeşil düğmeye ve uzaklaştırmak için de eksi işaretli düğmeye hızla tıklayın; bitişik haritalar için yeşil okları kullanın.


METAR-TAF: